Coarsegold, California
Current Conditions -  °F | °C
As of 3:53 AM on Friday 19 Dec 2014 (Local Time) from KMAE Reporting Station
Clear Clear  
Wind Chill: 45°   Ceiling: Unl
Heat Index: 45°   Visibility: 10mi
Dew Point: 40°   Wind: 3mph
Humidity: 82%   Direction: 90°E
Pressure: 30.22"   Gusts: NA
Location:  37.26°N, 119.7°W
Report Text: KMAE 191153Z AUTO 09003KT 10SM CLR 07/04 A3022 RMK AO2 SLP233 T00720044 10089 20072 50006
Loading
Personal Weather Stations






























Interactive Weather Map New forecast layout! Learn more

10-Day Weather Forecast

Advertisements
Track Severe Weather on mobile